createdAt,value
2019-02-19T00:06:38.032Z,3.28
2019-02-19T00:16:38.234Z,2.94
2019-02-19T00:26:37.954Z,3.77
2019-02-19T00:36:39.541Z,3.54
2019-02-19T00:46:39.013Z,3.94
2019-02-19T00:56:38.113Z,4.09
2019-02-19T01:06:37.967Z,3.85
2019-02-19T01:16:38.021Z,3.02
2019-02-19T01:26:39.185Z,2.97
2019-02-19T01:36:40.201Z,3.00
2019-02-19T01:46:38.013Z,3.24
2019-02-19T01:56:38.663Z,2.83
2019-02-19T02:06:37.932Z,3.21
2019-02-19T02:16:37.988Z,2.40
2019-02-19T02:26:37.958Z,2.39
2019-02-19T02:36:38.020Z,2.67
2019-02-19T02:46:37.988Z,2.41
2019-02-19T02:56:38.002Z,2.62
2019-02-19T03:06:38.056Z,2.48
2019-02-19T03:16:38.039Z,2.64
2019-02-19T03:26:37.988Z,1.77
2019-02-19T03:36:37.983Z,1.60
2019-02-19T03:46:38.021Z,2.71
2019-02-19T03:56:37.951Z,2.67
2019-02-19T04:06:37.957Z,2.42
2019-02-19T04:16:37.965Z,1.99
2019-02-19T04:26:38.001Z,2.40
2019-02-19T04:36:37.855Z,2.22
2019-02-19T04:46:38.011Z,2.45
2019-02-19T04:56:38.002Z,2.66
2019-02-19T05:06:38.182Z,3.22
2019-02-19T05:16:40.998Z,2.86
2019-02-19T05:26:37.972Z,2.39
2019-02-19T05:36:37.944Z,2.73
2019-02-19T05:46:38.056Z,2.04
2019-02-19T05:56:37.966Z,2.13
2019-02-19T06:06:37.913Z,2.32
2019-02-19T06:16:40.118Z,2.26
2019-02-19T06:26:38.006Z,2.56
2019-02-19T06:36:37.892Z,2.47
2019-02-19T06:46:37.939Z,2.06
2019-02-19T06:56:37.924Z,2.06
2019-02-19T07:06:39.131Z,2.76
2019-02-19T07:16:38.735Z,1.95
2019-02-19T07:26:38.865Z,2.53
2019-02-19T07:36:37.947Z,2.38
2019-02-19T07:46:37.911Z,2.84
2019-02-19T07:56:37.995Z,3.01
2019-02-19T08:06:37.999Z,3.72
2019-02-19T08:16:38.004Z,2.96
2019-02-19T08:26:38.006Z,3.68
2019-02-19T08:36:38.047Z,3.92
2019-02-19T08:46:38.079Z,3.67
2019-02-19T08:56:38.187Z,3.05
2019-02-19T09:06:38.063Z,3.21
2019-02-19T09:16:39.457Z,4.03
2019-02-19T09:26:38.065Z,3.81
2019-02-19T09:36:39.106Z,4.24
2019-02-19T09:46:38.500Z,4.47
2019-02-19T09:56:38.946Z,5.50
2019-02-19T10:06:38.087Z,3.78
2019-02-19T10:16:41.703Z,4.57
2019-02-19T10:26:38.047Z,4.56
2019-02-19T10:36:39.357Z,4.89
2019-02-19T10:46:38.093Z,3.72
2019-02-19T10:56:38.600Z,3.94
2019-02-19T11:06:39.076Z,4.34
2019-02-19T11:16:40.411Z,4.40
2019-02-19T11:26:38.103Z,4.82
2019-02-19T11:36:38.007Z,4.34
2019-02-19T11:46:38.091Z,3.61
2019-02-19T11:56:38.982Z,4.13
2019-02-19T12:06:38.055Z,3.48
2019-02-19T12:16:40.101Z,3.84
2019-02-19T12:26:39.235Z,3.17
2019-02-19T12:36:39.776Z,3.09
2019-02-19T12:46:38.071Z,2.43
2019-02-19T12:56:38.048Z,4.26
2019-02-19T13:06:37.930Z,2.47
2019-02-19T13:16:38.791Z,3.35
2019-02-19T13:26:38.124Z,2.32
2019-02-19T13:36:38.074Z,2.97
2019-02-19T13:46:38.072Z,2.23
2019-02-19T13:56:38.202Z,3.43
2019-02-19T14:06:37.970Z,5.64
2019-02-19T14:16:41.396Z,2.31
2019-02-19T14:26:38.472Z,2.04
2019-02-19T14:36:38.121Z,3.22
2019-02-19T14:46:38.063Z,2.14
2019-02-19T14:56:38.049Z,1.78
2019-02-19T15:06:38.042Z,2.45
2019-02-19T15:16:37.940Z,3.44
2019-02-19T15:26:38.005Z,2.37
2019-02-19T15:36:38.085Z,2.66
2019-02-19T15:46:38.361Z,2.04
2019-02-19T15:56:37.999Z,2.58
2019-02-19T16:06:38.073Z,2.11
2019-02-19T16:16:39.537Z,1.96
2019-02-19T16:26:38.073Z,1.85
2019-02-19T16:36:37.988Z,2.66
2019-02-19T16:46:38.128Z,2.76
2019-02-19T16:56:38.083Z,1.74
2019-02-19T17:06:39.102Z,2.36
2019-02-19T17:16:38.115Z,1.38
2019-02-19T17:26:38.024Z,1.40
2019-02-19T17:36:38.104Z,1.43
2019-02-19T17:46:38.081Z,1.30
2019-02-19T17:56:38.053Z,1.59
2019-02-19T18:06:37.913Z,1.32
2019-02-19T18:16:38.053Z,1.33
2019-02-19T18:26:38.047Z,1.90
2019-02-19T18:36:37.976Z,1.83
2019-02-19T18:46:37.970Z,1.57
2019-02-19T18:56:37.956Z,1.46
2019-02-19T19:06:38.000Z,1.56
2019-02-19T19:16:37.897Z,1.58
2019-02-19T19:26:37.960Z,1.63
2019-02-19T19:36:38.020Z,1.47
2019-02-19T19:46:37.876Z,1.94
2019-02-19T19:56:37.953Z,1.96
2019-02-19T20:06:38.153Z,1.50
2019-02-19T20:16:37.946Z,1.82
2019-02-19T20:26:37.951Z,2.15
2019-02-19T20:36:37.951Z,1.78
2019-02-19T20:46:38.003Z,1.92
2019-02-19T20:56:37.939Z,2.05
2019-02-19T21:06:37.942Z,1.95
2019-02-19T21:16:37.955Z,1.65
2019-02-19T21:26:37.943Z,1.42
2019-02-19T21:36:37.931Z,1.55
2019-02-19T21:46:37.930Z,1.70
2019-02-19T21:56:37.930Z,1.47
2019-02-19T22:06:37.928Z,1.52
2019-02-19T22:16:38.414Z,1.48
2019-02-19T22:26:37.962Z,1.94
2019-02-19T22:36:37.890Z,1.55
2019-02-19T22:46:37.962Z,0.91
2019-02-19T22:56:37.814Z,1.86
2019-02-19T23:06:37.877Z,1.42
2019-02-19T23:16:38.022Z,1.14
2019-02-19T23:26:37.922Z,1.04
2019-02-19T23:36:37.937Z,1.17
2019-02-19T23:46:38.875Z,1.03
2019-02-19T23:56:37.944Z,1.65
